sensor_id;sensor_type;location;lat;lon;timestamp;P1;durP1;ratioP1;P2;durP2;ratioP2
10465;SDS011;5280;42.600;23.556;2023-12-04T00:00:28;6.37;;;4.60;;
10465;SDS011;5280;42.600;23.556;2023-12-04T00:02:55;5.60;;;4.57;;
10465;SDS011;5280;42.600;23.556;2023-12-04T00:05:25;5.60;;;4.73;;
10465;SDS011;5280;42.600;23.556;2023-12-04T00:07:52;6.03;;;4.13;;
10465;SDS011;5280;42.600;23.556;2023-12-04T00:10:19;4.63;;;4.17;;
10465;SDS011;5280;42.600;23.556;2023-12-04T00:12:47;5.87;;;4.70;;
10465;SDS011;5280;42.600;23.556;2023-12-04T00:15:15;6.33;;;4.70;;
10465;SDS011;5280;42.600;23.556;2023-12-04T00:17:43;4.40;;;3.80;;
10465;SDS011;5280;42.600;23.556;2023-12-04T00:20:10;4.47;;;4.07;;
10465;SDS011;5280;42.600;23.556;2023-12-04T00:22:37;4.83;;;4.27;;
10465;SDS011;5280;42.600;23.556;2023-12-04T00:25:05;4.50;;;4.10;;
10465;SDS011;5280;42.600;23.556;2023-12-04T00:27:33;9.77;;;4.70;;
10465;SDS011;5280;42.600;23.556;2023-12-04T00:30:00;5.37;;;4.43;;
10465;SDS011;5280;42.600;23.556;2023-12-04T00:32:30;5.03;;;4.43;;
10465;SDS011;5280;42.600;23.556;2023-12-04T00:34:57;5.23;;;4.53;;
10465;SDS011;5280;42.600;23.556;2023-12-04T00:37:25;6.27;;;4.57;;
10465;SDS011;5280;42.600;23.556;2023-12-04T00:39:52;5.20;;;4.30;;
10465;SDS011;5280;42.600;23.556;2023-12-04T00:42:19;5.97;;;4.73;;
10465;SDS011;5280;42.600;23.556;2023-12-04T00:44:46;6.23;;;4.60;;
10465;SDS011;5280;42.600;23.556;2023-12-04T00:47:13;7.97;;;5.03;;
10465;SDS011;5280;42.600;23.556;2023-12-04T00:49:42;6.43;;;4.80;;
10465;SDS011;5280;42.600;23.556;2023-12-04T00:52:08;6.07;;;4.67;;
10465;SDS011;5280;42.600;23.556;2023-12-04T00:54:38;5.47;;;4.60;;
10465;SDS011;5280;42.600;23.556;2023-12-04T00:57:05;5.33;;;4.27;;
10465;SDS011;5280;42.600;23.556;2023-12-04T00:59:32;5.20;;;4.10;;
10465;SDS011;5280;42.600;23.556;2023-12-04T01:01:59;4.73;;;4.10;;
10465;SDS011;5280;42.600;23.556;2023-12-04T01:04:26;4.97;;;4.37;;
10465;SDS011;5280;42.600;23.556;2023-12-04T01:06:55;6.83;;;4.90;;
10465;SDS011;5280;42.600;23.556;2023-12-04T01:09:23;5.43;;;4.23;;
10465;SDS011;5280;42.600;23.556;2023-12-04T01:11:51;4.57;;;4.13;;
10465;SDS011;5280;42.600;23.556;2023-12-04T01:14:18;5.83;;;4.07;;
10465;SDS011;5280;42.600;23.556;2023-12-04T01:16:45;5.70;;;4.73;;
10465;SDS011;5280;42.600;23.556;2023-12-04T01:19:13;5.57;;;4.60;;
10465;SDS011;5280;42.600;23.556;2023-12-04T01:21:40;5.63;;;4.60;;
10465;SDS011;5280;42.600;23.556;2023-12-04T01:24:08;6.73;;;4.37;;
10465;SDS011;5280;42.600;23.556;2023-12-04T01:26:35;5.17;;;4.37;;
10465;SDS011;5280;42.600;23.556;2023-12-04T01:29:02;5.70;;;4.50;;
10465;SDS011;5280;42.600;23.556;2023-12-04T01:31:30;6.60;;;4.77;;
10465;SDS011;5280;42.600;23.556;2023-12-04T01:33:56;6.67;;;4.50;;
10465;SDS011;5280;42.600;23.556;2023-12-04T01:36:26;5.90;;;4.60;;
10465;SDS011;5280;42.600;23.556;2023-12-04T01:38:53;5.87;;;4.67;;
10465;SDS011;5280;42.600;23.556;2023-12-04T01:41:21;6.50;;;5.10;;
10465;SDS011;5280;42.600;23.556;2023-12-04T01:43:56;8.23;;;5.13;;
10465;SDS011;5280;42.600;23.556;2023-12-04T01:46:23;6.10;;;4.77;;
10465;SDS011;5280;42.600;23.556;2023-12-04T01:48:50;6.23;;;4.90;;
10465;SDS011;5280;42.600;23.556;2023-12-04T01:51:17;5.90;;;4.63;;
10465;SDS011;5280;42.600;23.556;2023-12-04T01:53:45;6.70;;;4.53;;
10465;SDS011;5280;42.600;23.556;2023-12-04T01:56:13;6.57;;;5.10;;
10465;SDS011;5280;42.600;23.556;2023-12-04T01:58:43;5.90;;;5.00;;
10465;SDS011;5280;42.600;23.556;2023-12-04T02:01:11;7.17;;;5.37;;
10465;SDS011;5280;42.600;23.556;2023-12-04T02:03:38;9.40;;;5.23;;
10465;SDS011;5280;42.600;23.556;2023-12-04T02:06:07;6.53;;;4.30;;
10465;SDS011;5280;42.600;23.556;2023-12-04T02:08:35;7.13;;;4.80;;
10465;SDS011;5280;42.600;23.556;2023-12-04T02:11:03;7.80;;;5.33;;
10465;SDS011;5280;42.600;23.556;2023-12-04T02:13:30;7.23;;;5.20;;
10465;SDS011;5280;42.600;23.556;2023-12-04T02:15:59;6.10;;;5.07;;
10465;SDS011;5280;42.600;23.556;2023-12-04T02:18:32;6.90;;;5.20;;
10465;SDS011;5280;42.600;23.556;2023-12-04T02:21:00;6.87;;;5.20;;
10465;SDS011;5280;42.600;23.556;2023-12-04T02:23:27;6.20;;;5.20;;
10465;SDS011;5280;42.600;23.556;2023-12-04T02:26:01;7.60;;;5.40;;
10465;SDS011;5280;42.600;23.556;2023-12-04T02:28:35;5.43;;;4.73;;
10465;SDS011;5280;42.600;23.556;2023-12-04T02:31:04;6.70;;;4.80;;
10465;SDS011;5280;42.600;23.556;2023-12-04T02:33:33;7.80;;;6.10;;
10465;SDS011;5280;42.600;23.556;2023-12-04T02:36:02;6.73;;;5.30;;
10465;SDS011;5280;42.600;23.556;2023-12-04T02:38:31;7.87;;;5.40;;
10465;SDS011;5280;42.600;23.556;2023-12-04T02:41:00;6.67;;;5.70;;
10465;SDS011;5280;42.600;23.556;2023-12-04T02:43:27;7.77;;;5.47;;
10465;SDS011;5280;42.600;23.556;2023-12-04T02:45:54;6.30;;;4.93;;
10465;SDS011;5280;42.600;23.556;2023-12-04T02:48:24;6.77;;;5.40;;
10465;SDS011;5280;42.600;23.556;2023-12-04T02:50:51;7.20;;;5.03;;
10465;SDS011;5280;42.600;23.556;2023-12-04T02:53:18;6.50;;;5.27;;
10465;SDS011;5280;42.600;23.556;2023-12-04T02:55:45;6.90;;;5.47;;
10465;SDS011;5280;42.600;23.556;2023-12-04T02:58:14;5.93;;;4.87;;
10465;SDS011;5280;42.600;23.556;2023-12-04T03:00:41;7.07;;;5.27;;
10465;SDS011;5280;42.600;23.556;2023-12-04T03:03:07;5.93;;;4.97;;
10465;SDS011;5280;42.600;23.556;2023-12-04T03:05:34;7.00;;;5.20;;
10465;SDS011;5280;42.600;23.556;2023-12-04T03:08:01;6.03;;;4.93;;
10465;SDS011;5280;42.600;23.556;2023-12-04T03:10:28;8.17;;;5.37;;
10465;SDS011;5280;42.600;23.556;2023-12-04T03:12:55;6.00;;;5.07;;
10465;SDS011;5280;42.600;23.556;2023-12-04T03:15:23;6.17;;;4.90;;
10465;SDS011;5280;42.600;23.556;2023-12-04T03:17:53;7.43;;;4.93;;
10465;SDS011;5280;42.600;23.556;2023-12-04T03:20:20;8.40;;;5.07;;
10465;SDS011;5280;42.600;23.556;2023-12-04T03:22:47;6.03;;;4.87;;
10465;SDS011;5280;42.600;23.556;2023-12-04T03:25:17;6.70;;;5.30;;
10465;SDS011;5280;42.600;23.556;2023-12-04T03:27:44;5.17;;;4.67;;
10465;SDS011;5280;42.600;23.556;2023-12-04T03:30:12;6.53;;;4.83;;
10465;SDS011;5280;42.600;23.556;2023-12-04T03:32:40;6.10;;;4.83;;
10465;SDS011;5280;42.600;23.556;2023-12-04T03:35:07;6.73;;;5.30;;
10465;SDS011;5280;42.600;23.556;2023-12-04T03:37:34;5.70;;;4.73;;
10465;SDS011;5280;42.600;23.556;2023-12-04T03:40:03;6.83;;;5.10;;
10465;SDS011;5280;42.600;23.556;2023-12-04T03:42:30;5.47;;;4.80;;
10465;SDS011;5280;42.600;23.556;2023-12-04T03:44:57;6.37;;;5.20;;
10465;SDS011;5280;42.600;23.556;2023-12-04T03:47:24;6.77;;;4.97;;
10465;SDS011;5280;42.600;23.556;2023-12-04T03:49:53;5.63;;;4.67;;
10465;SDS011;5280;42.600;23.556;2023-12-04T03:52:19;6.27;;;4.50;;
10465;SDS011;5280;42.600;23.556;2023-12-04T03:54:46;6.70;;;5.00;;
10465;SDS011;5280;42.600;23.556;2023-12-04T03:57:13;6.70;;;4.70;;
10465;SDS011;5280;42.600;23.556;2023-12-04T03:59:40;6.40;;;4.97;;
10465;SDS011;5280;42.600;23.556;2023-12-04T04:02:07;6.23;;;4.93;;
10465;SDS011;5280;42.600;23.556;2023-12-04T04:04:36;6.13;;;4.60;;
10465;SDS011;5280;42.600;23.556;2023-12-04T04:07:05;7.30;;;4.50;;
10465;SDS011;5280;42.600;23.556;2023-12-04T04:09:31;5.60;;;4.17;;
10465;SDS011;5280;42.600;23.556;2023-12-04T04:11:58;5.47;;;4.60;;
10465;SDS011;5280;42.600;23.556;2023-12-04T04:14:25;7.40;;;4.90;;
10465;SDS011;5280;42.600;23.556;2023-12-04T04:16:52;6.63;;;4.63;;
10465;SDS011;5280;42.600;23.556;2023-12-04T04:19:19;5.43;;;4.70;;
10465;SDS011;5280;42.600;23.556;2023-12-04T04:21:46;6.43;;;4.70;;
10465;SDS011;5280;42.600;23.556;2023-12-04T04:24:14;7.40;;;4.50;;
10465;SDS011;5280;42.600;23.556;2023-12-04T04:26:41;6.77;;;4.67;;
10465;SDS011;5280;42.600;23.556;2023-12-04T04:29:08;5.27;;;4.43;;
10465;SDS011;5280;42.600;23.556;2023-12-04T04:31:35;6.80;;;4.83;;
10465;SDS011;5280;42.600;23.556;2023-12-04T04:34:02;4.93;;;4.07;;
10465;SDS011;5280;42.600;23.556;2023-12-04T04:36:29;5.90;;;4.83;;
10465;SDS011;5280;42.600;23.556;2023-12-04T04:38:56;5.57;;;4.20;;
10465;SDS011;5280;42.600;23.556;2023-12-04T04:41:29;5.77;;;4.40;;
10465;SDS011;5280;42.600;23.556;2023-12-04T04:43:58;6.00;;;4.60;;
10465;SDS011;5280;42.600;23.556;2023-12-04T04:46:25;4.97;;;4.30;;
10465;SDS011;5280;42.600;23.556;2023-12-04T04:48:55;6.00;;;4.33;;
10465;SDS011;5280;42.600;23.556;2023-12-04T04:51:22;5.13;;;4.27;;
10465;SDS011;5280;42.600;23.556;2023-12-04T04:53:49;6.60;;;4.80;;
10465;SDS011;5280;42.600;23.556;2023-12-04T04:56:19;5.37;;;3.87;;
10465;SDS011;5280;42.600;23.556;2023-12-04T04:58:47;5.23;;;4.37;;
10465;SDS011;5280;42.600;23.556;2023-12-04T05:01:14;5.03;;;4.50;;
10465;SDS011;5280;42.600;23.556;2023-12-04T05:03:41;5.00;;;4.13;;
10465;SDS011;5280;42.600;23.556;2023-12-04T05:06:08;5.50;;;4.20;;
10465;SDS011;5280;42.600;23.556;2023-12-04T05:08:36;6.20;;;4.70;;
10465;SDS011;5280;42.600;23.556;2023-12-04T05:11:03;4.60;;;4.10;;
10465;SDS011;5280;42.600;23.556;2023-12-04T05:13:30;4.20;;;3.70;;
10465;SDS011;5280;42.600;23.556;2023-12-04T05:15:59;5.67;;;4.20;;
10465;SDS011;5280;42.600;23.556;2023-12-04T05:18:26;5.37;;;4.00;;
10465;SDS011;5280;42.600;23.556;2023-12-04T05:20:52;5.47;;;4.40;;
10465;SDS011;5280;42.600;23.556;2023-12-04T05:23:19;7.17;;;4.67;;
10465;SDS011;5280;42.600;23.556;2023-12-04T05:25:46;4.17;;;3.77;;
10465;SDS011;5280;42.600;23.556;2023-12-04T05:28:13;4.63;;;4.07;;
10465;SDS011;5280;42.600;23.556;2023-12-04T05:30:40;6.13;;;3.97;;
10465;SDS011;5280;42.600;23.556;2023-12-04T05:33:09;4.90;;;3.90;;
10465;SDS011;5280;42.600;23.556;2023-12-04T05:35:36;4.60;;;3.90;;
10465;SDS011;5280;42.600;23.556;2023-12-04T05:38:03;5.30;;;4.13;;
10465;SDS011;5280;42.600;23.556;2023-12-04T05:40:29;4.73;;;4.03;;
10465;SDS011;5280;42.600;23.556;2023-12-04T05:42:58;5.10;;;4.03;;
10465;SDS011;5280;42.600;23.556;2023-12-04T05:45:25;6.67;;;4.30;;
10465;SDS011;5280;42.600;23.556;2023-12-04T05:47:52;3.73;;;3.23;;
10465;SDS011;5280;42.600;23.556;2023-12-04T05:50:20;4.93;;;4.17;;
10465;SDS011;5280;42.600;23.556;2023-12-04T05:52:48;4.57;;;3.53;;
10465;SDS011;5280;42.600;23.556;2023-12-04T05:55:14;5.57;;;4.20;;
10465;SDS011;5280;42.600;23.556;2023-12-04T05:57:41;4.73;;;4.10;;
10465;SDS011;5280;42.600;23.556;2023-12-04T06:00:10;5.17;;;4.43;;
10465;SDS011;5280;42.600;23.556;2023-12-04T06:02:38;4.47;;;3.77;;
10465;SDS011;5280;42.600;23.556;2023-12-04T06:05:05;6.93;;;4.67;;
10465;SDS011;5280;42.600;23.556;2023-12-04T06:07:34;5.87;;;4.67;;
10465;SDS011;5280;42.600;23.556;2023-12-04T06:10:01;5.23;;;4.13;;
10465;SDS011;5280;42.600;23.556;2023-12-04T06:12:30;5.43;;;4.20;;
10465;SDS011;5280;42.600;23.556;2023-12-04T06:14:57;5.73;;;4.27;;
10465;SDS011;5280;42.600;23.556;2023-12-04T06:17:24;5.13;;;3.60;;
10465;SDS011;5280;42.600;23.556;2023-12-04T06:19:52;4.47;;;4.03;;
10465;SDS011;5280;42.600;23.556;2023-12-04T06:22:19;5.70;;;4.57;;
10465;SDS011;5280;42.600;23.556;2023-12-04T06:24:50;5.23;;;4.17;;
10465;SDS011;5280;42.600;23.556;2023-12-04T06:27:18;10.20;;;5.03;;
10465;SDS011;5280;42.600;23.556;2023-12-04T06:29:46;5.53;;;4.20;;
10465;SDS011;5280;42.600;23.556;2023-12-04T06:32:14;6.10;;;4.80;;
10465;SDS011;5280;42.600;23.556;2023-12-04T06:34:41;5.97;;;4.60;;
10465;SDS011;5280;42.600;23.556;2023-12-04T06:37:09;5.77;;;4.70;;
10465;SDS011;5280;42.600;23.556;2023-12-04T06:39:37;6.67;;;4.00;;
10465;SDS011;5280;42.600;23.556;2023-12-04T06:42:07;5.10;;;4.37;;
10465;SDS011;5280;42.600;23.556;2023-12-04T06:44:35;5.63;;;5.00;;
10465;SDS011;5280;42.600;23.556;2023-12-04T06:47:03;6.93;;;5.13;;
10465;SDS011;5280;42.600;23.556;2023-12-04T06:49:31;5.57;;;4.63;;
10465;SDS011;5280;42.600;23.556;2023-12-04T06:51:59;5.33;;;4.50;;
10465;SDS011;5280;42.600;23.556;2023-12-04T06:54:26;8.17;;;5.07;;
10465;SDS011;5280;42.600;23.556;2023-12-04T06:56:53;8.00;;;5.73;;
10465;SDS011;5280;42.600;23.556;2023-12-04T06:59:22;6.03;;;4.93;;
10465;SDS011;5280;42.600;23.556;2023-12-04T07:01:50;8.10;;;6.20;;
10465;SDS011;5280;42.600;23.556;2023-12-04T07:04:17;7.03;;;5.37;;
10465;SDS011;5280;42.600;23.556;2023-12-04T07:06:46;7.33;;;5.33;;
10465;SDS011;5280;42.600;23.556;2023-12-04T07:09:14;6.50;;;4.90;;
10465;SDS011;5280;42.600;23.556;2023-12-04T07:11:42;7.60;;;5.10;;
10465;SDS011;5280;42.600;23.556;2023-12-04T07:14:09;6.50;;;5.57;;
10465;SDS011;5280;42.600;23.556;2023-12-04T07:16:41;7.53;;;5.40;;
10465;SDS011;5280;42.600;23.556;2023-12-04T07:19:08;5.77;;;4.93;;
10465;SDS011;5280;42.600;23.556;2023-12-04T07:21:35;6.60;;;5.10;;
10465;SDS011;5280;42.600;23.556;2023-12-04T07:24:04;6.00;;;5.40;;
10465;SDS011;5280;42.600;23.556;2023-12-04T07:26:31;7.90;;;5.60;;
10465;SDS011;5280;42.600;23.556;2023-12-04T07:28:59;6.40;;;5.27;;
10465;SDS011;5280;42.600;23.556;2023-12-04T07:31:26;6.50;;;5.10;;
10465;SDS011;5280;42.600;23.556;2023-12-04T07:33:55;6.80;;;5.40;;
10465;SDS011;5280;42.600;23.556;2023-12-04T07:36:22;6.43;;;5.13;;
10465;SDS011;5280;42.600;23.556;2023-12-04T07:38:50;7.20;;;4.87;;
10465;SDS011;5280;42.600;23.556;2023-12-04T07:41:19;5.93;;;4.93;;
10465;SDS011;5280;42.600;23.556;2023-12-04T07:43:46;5.77;;;5.27;;
10465;SDS011;5280;42.600;23.556;2023-12-04T07:46:13;7.17;;;4.97;;
10465;SDS011;5280;42.600;23.556;2023-12-04T07:48:40;6.43;;;5.10;;
10465;SDS011;5280;42.600;23.556;2023-12-04T07:51:09;6.07;;;4.97;;
10465;SDS011;5280;42.600;23.556;2023-12-04T07:53:36;7.20;;;5.23;;
10465;SDS011;5280;42.600;23.556;2023-12-04T07:56:03;6.10;;;4.90;;
10465;SDS011;5280;42.600;23.556;2023-12-04T07:58:31;5.90;;;4.97;;
10465;SDS011;5280;42.600;23.556;2023-12-04T08:00:58;6.33;;;5.07;;
10465;SDS011;5280;42.600;23.556;2023-12-04T08:03:25;6.83;;;5.33;;
10465;SDS011;5280;42.600;23.556;2023-12-04T08:05:52;5.87;;;4.93;;
10465;SDS011;5280;42.600;23.556;2023-12-04T08:08:23;7.77;;;5.57;;
10465;SDS011;5280;42.600;23.556;2023-12-04T08:10:51;6.40;;;5.27;;
10465;SDS011;5280;42.600;23.556;2023-12-04T08:13:18;8.10;;;5.70;;
10465;SDS011;5280;42.600;23.556;2023-12-04T08:15:48;6.87;;;5.23;;
10465;SDS011;5280;42.600;23.556;2023-12-04T08:18:15;6.47;;;5.50;;
10465;SDS011;5280;42.600;23.556;2023-12-04T08:20:42;6.93;;;5.07;;
10465;SDS011;5280;42.600;23.556;2023-12-04T08:23:09;6.90;;;5.33;;
10465;SDS011;5280;42.600;23.556;2023-12-04T08:25:37;6.87;;;5.00;;
10465;SDS011;5280;42.600;23.556;2023-12-04T08:28:04;7.60;;;5.20;;
10465;SDS011;5280;42.600;23.556;2023-12-04T08:30:34;6.70;;;5.37;;
10465;SDS011;5280;42.600;23.556;2023-12-04T08:33:01;5.53;;;4.57;;
10465;SDS011;5280;42.600;23.556;2023-12-04T08:35:28;7.27;;;5.10;;
10465;SDS011;5280;42.600;23.556;2023-12-04T08:37:55;6.47;;;4.90;;
10465;SDS011;5280;42.600;23.556;2023-12-04T08:40:21;6.53;;;5.20;;
10465;SDS011;5280;42.600;23.556;2023-12-04T08:42:53;12.47;;;8.83;;
10465;SDS011;5280;42.600;23.556;2023-12-04T08:45:20;6.90;;;5.53;;
10465;SDS011;5280;42.600;23.556;2023-12-04T08:47:47;6.73;;;4.90;;
10465;SDS011;5280;42.600;23.556;2023-12-04T08:50:17;8.47;;;5.50;;
10465;SDS011;5280;42.600;23.556;2023-12-04T08:52:44;7.27;;;5.10;;
10465;SDS011;5280;42.600;23.556;2023-12-04T08:55:11;5.20;;;4.70;;
10465;SDS011;5280;42.600;23.556;2023-12-04T08:57:43;6.20;;;5.00;;
10465;SDS011;5280;42.600;23.556;2023-12-04T09:00:12;7.00;;;5.07;;
10465;SDS011;5280;42.600;23.556;2023-12-04T09:02:40;6.90;;;5.10;;
10465;SDS011;5280;42.600;23.556;2023-12-04T09:05:07;5.87;;;4.00;;
10465;SDS011;5280;42.600;23.556;2023-12-04T09:07:35;5.93;;;4.83;;
10465;SDS011;5280;42.600;23.556;2023-12-04T09:10:02;6.23;;;5.00;;
10465;SDS011;5280;42.600;23.556;2023-12-04T09:12:29;5.60;;;4.57;;
10465;SDS011;5280;42.600;23.556;2023-12-04T09:14:58;6.20;;;4.50;;
10465;SDS011;5280;42.600;23.556;2023-12-04T09:17:28;7.17;;;5.13;;
10465;SDS011;5280;42.600;23.556;2023-12-04T09:19:55;6.53;;;4.80;;
10465;SDS011;5280;42.600;23.556;2023-12-04T09:22:22;7.03;;;4.80;;
10465;SDS011;5280;42.600;23.556;2023-12-04T09:24:49;5.20;;;4.70;;
10465;SDS011;5280;42.600;23.556;2023-12-04T09:27:16;4.87;;;4.37;;
10465;SDS011;5280;42.600;23.556;2023-12-04T09:29:43;5.93;;;4.73;;
10465;SDS011;5280;42.600;23.556;2023-12-04T09:32:10;5.67;;;4.80;;
10465;SDS011;5280;42.600;23.556;2023-12-04T09:34:38;5.73;;;4.60;;
10465;SDS011;5280;42.600;23.556;2023-12-04T09:37:05;7.43;;;4.47;;
10465;SDS011;5280;42.600;23.556;2023-12-04T09:39:32;6.37;;;4.10;;
10465;SDS011;5280;42.600;23.556;2023-12-04T09:41:59;4.73;;;4.30;;
10465;SDS011;5280;42.600;23.556;2023-12-04T09:44:28;5.43;;;4.60;;
10465;SDS011;5280;42.600;23.556;2023-12-04T09:46:56;5.83;;;4.40;;
10465;SDS011;5280;42.600;23.556;2023-12-04T09:49:24;5.73;;;4.57;;
10465;SDS011;5280;42.600;23.556;2023-12-04T09:51:54;5.13;;;4.63;;
10465;SDS011;5280;42.600;23.556;2023-12-04T09:54:23;5.97;;;4.60;;
10465;SDS011;5280;42.600;23.556;2023-12-04T09:56:51;7.00;;;4.63;;
10465;SDS011;5280;42.600;23.556;2023-12-04T09:59:18;8.00;;;5.67;;
10465;SDS011;5280;42.600;23.556;2023-12-04T10:01:51;7.07;;;5.27;;
10465;SDS011;5280;42.600;23.556;2023-12-04T10:04:18;6.40;;;4.93;;
10465;SDS011;5280;42.600;23.556;2023-12-04T10:06:46;5.50;;;4.90;;
10465;SDS011;5280;42.600;23.556;2023-12-04T10:09:17;6.10;;;4.80;;
10465;SDS011;5280;42.600;23.556;2023-12-04T10:11:44;6.23;;;4.80;;
10465;SDS011;5280;42.600;23.556;2023-12-04T10:14:13;5.87;;;4.97;;
10465;SDS011;5280;42.600;23.556;2023-12-04T10:16:42;5.53;;;4.83;;
10465;SDS011;5280;42.600;23.556;2023-12-04T10:19:15;5.57;;;4.93;;
10465;SDS011;5280;42.600;23.556;2023-12-04T10:21:48;8.17;;;5.27;;
10465;SDS011;5280;42.600;23.556;2023-12-04T10:24:28;5.93;;;4.80;;
10465;SDS011;5280;42.600;23.556;2023-12-04T10:26:56;6.03;;;4.53;;
10465;SDS011;5280;42.600;23.556;2023-12-04T10:29:25;8.27;;;5.43;;
10465;SDS011;5280;42.600;23.556;2023-12-04T10:31:55;7.30;;;5.87;;
10465;SDS011;5280;42.600;23.556;2023-12-04T10:34:25;7.23;;;5.80;;
10465;SDS011;5280;42.600;23.556;2023-12-04T10:36:55;7.93;;;5.30;;
10465;SDS011;5280;42.600;23.556;2023-12-04T10:39:24;8.73;;;5.37;;
10465;SDS011;5280;42.600;23.556;2023-12-04T10:42:01;7.37;;;5.23;;
10465;SDS011;5280;42.600;23.556;2023-12-04T10:44:30;6.67;;;5.47;;
10465;SDS011;5280;42.600;23.556;2023-12-04T10:47:00;9.17;;;6.70;;
10465;SDS011;5280;42.600;23.556;2023-12-04T10:49:29;7.50;;;5.70;;
10465;SDS011;5280;42.600;23.556;2023-12-04T10:51:56;6.57;;;5.80;;
10465;SDS011;5280;42.600;23.556;2023-12-04T10:54:25;6.27;;;5.40;;
10465;SDS011;5280;42.600;23.556;2023-12-04T10:56:52;5.67;;;5.07;;
10465;SDS011;5280;42.600;23.556;2023-12-04T10:59:27;6.40;;;4.97;;
10465;SDS011;5280;42.600;23.556;2023-12-04T11:01:59;6.13;;;4.97;;
10465;SDS011;5280;42.600;23.556;2023-12-04T11:04:29;8.70;;;5.17;;
10465;SDS011;5280;42.600;23.556;2023-12-04T11:06:58;6.93;;;5.23;;
10465;SDS011;5280;42.600;23.556;2023-12-04T11:09:29;7.70;;;5.10;;
10465;SDS011;5280;42.600;23.556;2023-12-04T11:11:59;6.40;;;5.27;;
10465;SDS011;5280;42.600;23.556;2023-12-04T11:14:34;7.23;;;5.23;;
10465;SDS011;5280;42.600;23.556;2023-12-04T11:17:07;5.53;;;4.93;;
10465;SDS011;5280;42.600;23.556;2023-12-04T11:19:39;5.37;;;4.70;;
10465;SDS011;5280;42.600;23.556;2023-12-04T11:22:14;6.00;;;5.23;;
10465;SDS011;5280;42.600;23.556;2023-12-04T11:24:45;6.33;;;5.33;;
10465;SDS011;5280;42.600;23.556;2023-12-04T11:27:14;7.00;;;5.23;;
10465;SDS011;5280;42.600;23.556;2023-12-04T11:29:43;7.00;;;5.57;;
10465;SDS011;5280;42.600;23.556;2023-12-04T11:32:13;7.30;;;5.70;;
10465;SDS011;5280;42.600;23.556;2023-12-04T11:34:51;8.43;;;5.73;;
10465;SDS011;5280;42.600;23.556;2023-12-04T11:37:22;6.17;;;4.50;;
10465;SDS011;5280;42.600;23.556;2023-12-04T11:39:49;5.17;;;4.10;;
10465;SDS011;5280;42.600;23.556;2023-12-04T11:45:04;5.83;;;4.30;;
10465;SDS011;5280;42.600;23.556;2023-12-04T11:50:18;7.47;;;4.23;;
10465;SDS011;5280;42.600;23.556;2023-12-04T11:52:48;6.23;;;4.70;;
10465;SDS011;5280;42.600;23.556;2023-12-04T11:55:16;6.80;;;5.20;;
10465;SDS011;5280;42.600;23.556;2023-12-04T11:57:44;5.20;;;4.70;;
10465;SDS011;5280;42.600;23.556;2023-12-04T12:00:18;5.90;;;4.73;;
10465;SDS011;5280;42.600;23.556;2023-12-04T12:02:48;5.57;;;4.73;;
10465;SDS011;5280;42.600;23.556;2023-12-04T12:05:29;8.80;;;4.90;;
10465;SDS011;5280;42.600;23.556;2023-12-04T12:07:59;6.17;;;5.03;;
10465;SDS011;5280;42.600;23.556;2023-12-04T12:10:27;6.67;;;5.20;;
10465;SDS011;5280;42.600;23.556;2023-12-04T12:14:47;8.17;;;5.63;;
10465;SDS011;5280;42.600;23.556;2023-12-04T12:17:14;8.20;;;5.97;;
10465;SDS011;5280;42.600;23.556;2023-12-04T12:19:41;7.00;;;5.97;;
10465;SDS011;5280;42.600;23.556;2023-12-04T12:22:09;5.97;;;5.37;;
10465;SDS011;5280;42.600;23.556;2023-12-04T12:24:38;8.27;;;5.87;;
10465;SDS011;5280;42.600;23.556;2023-12-04T12:27:06;7.10;;;5.53;;
10465;SDS011;5280;42.600;23.556;2023-12-04T12:29:33;7.67;;;5.70;;
10465;SDS011;5280;42.600;23.556;2023-12-04T12:32:04;7.17;;;5.57;;
10465;SDS011;5280;42.600;23.556;2023-12-04T12:34:31;7.10;;;5.63;;
10465;SDS011;5280;42.600;23.556;2023-12-04T12:37:01;7.03;;;5.93;;
10465;SDS011;5280;42.600;23.556;2023-12-04T12:39:31;8.90;;;6.03;;
10465;SDS011;5280;42.600;23.556;2023-12-04T12:41:58;7.20;;;5.53;;
10465;SDS011;5280;42.600;23.556;2023-12-04T12:44:36;8.80;;;5.73;;
10465;SDS011;5280;42.600;23.556;2023-12-04T12:47:06;7.00;;;5.90;;
10465;SDS011;5280;42.600;23.556;2023-12-04T12:49:33;7.87;;;5.87;;
10465;SDS011;5280;42.600;23.556;2023-12-04T12:52:01;6.43;;;5.53;;
10465;SDS011;5280;42.600;23.556;2023-12-04T12:54:28;5.97;;;5.37;;
10465;SDS011;5280;42.600;23.556;2023-12-04T12:56:58;7.00;;;5.70;;
10465;SDS011;5280;42.600;23.556;2023-12-04T12:59:25;7.63;;;5.97;;
10465;SDS011;5280;42.600;23.556;2023-12-04T13:01:53;6.70;;;6.00;;
10465;SDS011;5280;42.600;23.556;2023-12-04T13:04:23;7.93;;;6.00;;
10465;SDS011;5280;42.600;23.556;2023-12-04T13:06:50;7.73;;;5.63;;
10465;SDS011;5280;42.600;23.556;2023-12-04T13:09:17;9.20;;;6.00;;
10465;SDS011;5280;42.600;23.556;2023-12-04T13:11:47;6.63;;;5.10;;
10465;SDS011;5280;42.600;23.556;2023-12-04T13:14:17;5.77;;;4.63;;
10465;SDS011;5280;42.600;23.556;2023-12-04T13:16:44;6.90;;;4.90;;
10465;SDS011;5280;42.600;23.556;2023-12-04T13:19:11;7.77;;;5.43;;
10465;SDS011;5280;42.600;23.556;2023-12-04T13:21:43;6.43;;;4.90;;
10465;SDS011;5280;42.600;23.556;2023-12-04T13:24:10;6.10;;;4.80;;
10465;SDS011;5280;42.600;23.556;2023-12-04T13:26:37;5.23;;;4.67;;
10465;SDS011;5280;42.600;23.556;2023-12-04T13:29:05;6.27;;;4.80;;
10465;SDS011;5280;42.600;23.556;2023-12-04T13:31:32;5.90;;;4.63;;
10465;SDS011;5280;42.600;23.556;2023-12-04T13:34:00;5.03;;;4.43;;
10465;SDS011;5280;42.600;23.556;2023-12-04T13:36:28;5.10;;;4.50;;
10465;SDS011;5280;42.600;23.556;2023-12-04T13:38:56;5.37;;;4.70;;
10465;SDS011;5280;42.600;23.556;2023-12-04T13:41:23;5.13;;;4.60;;
10465;SDS011;5280;42.600;23.556;2023-12-04T13:44:11;4.60;;;4.20;;
10465;SDS011;5280;42.600;23.556;2023-12-04T13:46:40;6.27;;;4.80;;
10465;SDS011;5280;42.600;23.556;2023-12-04T13:49:07;5.43;;;4.60;;
10465;SDS011;5280;42.600;23.556;2023-12-04T13:51:35;6.20;;;4.73;;
10465;SDS011;5280;42.600;23.556;2023-12-04T13:54:06;4.87;;;4.33;;
10465;SDS011;5280;42.600;23.556;2023-12-04T13:56:46;7.70;;;4.70;;
10465;SDS011;5280;42.600;23.556;2023-12-04T13:59:18;6.47;;;4.77;;
10465;SDS011;5280;42.600;23.556;2023-12-04T14:01:46;5.53;;;5.00;;
10465;SDS011;5280;42.600;23.556;2023-12-04T14:04:16;5.03;;;4.60;;
10465;SDS011;5280;42.600;23.556;2023-12-04T14:06:44;6.07;;;5.10;;
10465;SDS011;5280;42.600;23.556;2023-12-04T14:09:13;6.50;;;5.37;;
10465;SDS011;5280;42.600;23.556;2023-12-04T14:11:42;6.83;;;5.20;;
10465;SDS011;5280;42.600;23.556;2023-12-04T14:14:13;8.27;;;5.80;;
10465;SDS011;5280;42.600;23.556;2023-12-04T14:16:40;7.73;;;5.40;;
10465;SDS011;5280;42.600;23.556;2023-12-04T14:19:07;6.07;;;4.90;;
10465;SDS011;5280;42.600;23.556;2023-12-04T14:21:34;8.53;;;5.40;;
10465;SDS011;5280;42.600;23.556;2023-12-04T14:24:01;6.97;;;5.63;;
10465;SDS011;5280;42.600;23.556;2023-12-04T14:26:29;7.47;;;5.57;;
10465;SDS011;5280;42.600;23.556;2023-12-04T14:28:56;7.77;;;5.27;;
10465;SDS011;5280;42.600;23.556;2023-12-04T14:31:26;7.20;;;5.70;;
10465;SDS011;5280;42.600;23.556;2023-12-04T14:33:53;9.07;;;5.50;;
10465;SDS011;5280;42.600;23.556;2023-12-04T14:36:20;7.07;;;6.00;;
10465;SDS011;5280;42.600;23.556;2023-12-04T14:38:49;7.30;;;5.43;;
10465;SDS011;5280;42.600;23.556;2023-12-04T14:41:16;9.20;;;6.30;;
10465;SDS011;5280;42.600;23.556;2023-12-04T14:43:46;7.60;;;5.70;;
10465;SDS011;5280;42.600;23.556;2023-12-04T14:46:13;7.00;;;5.73;;
10465;SDS011;5280;42.600;23.556;2023-12-04T14:48:41;7.47;;;5.30;;
10465;SDS011;5280;42.600;23.556;2023-12-04T14:51:09;7.67;;;5.50;;
10465;SDS011;5280;42.600;23.556;2023-12-04T14:53:37;9.70;;;6.17;;
10465;SDS011;5280;42.600;23.556;2023-12-04T14:56:12;7.03;;;5.13;;
10465;SDS011;5280;42.600;23.556;2023-12-04T14:58:57;7.37;;;5.43;;
10465;SDS011;5280;42.600;23.556;2023-12-04T15:01:40;7.33;;;5.30;;